Time;durP1;ratioP1;P1;durP2;ratioP2;P2;SDS_P1;SDS_P2;PMS_P1;PMS_P2;Temp;Humidity;BMP_temperature;BMP_pressure;BME280_temperature;BME280_humidity;BME280_pressure;Samples;Min_cycle;Max_cycle;Signal;HPM_P1;HPM_P2
2024/01/24 00:00:55;;;;;;;;;0.00;0.00;;;;;20.55;45.41;102116.28;6367736;22;45307;-79
2024/01/24 00:03:21;;;;;;;;;0.00;0.00;;;;;20.55;45.42;102113.66;6367523;22;45420;-80
2024/01/24 00:05:46;;;;;;;;;0.00;0.00;;;;;20.55;45.27;102112.81;6367914;22;45416;-80
2024/01/24 00:08:12;;;;;;;;;0.00;0.00;;;;;20.39;45.51;102075.38;6367410;22;47038;-80
2024/01/24 00:10:37;;;;;;;;;0.00;0.00;;;;;20.35;45.69;102070.50;6339194;22;45265;-80
2024/01/24 00:13:02;;;;;;;;;0.00;0.00;;;;;20.45;45.58;102097.78;6367811;22;45210;-80
2024/01/24 00:15:28;;;;;;;;;0.33;0.33;;;;;20.35;45.58;102078.44;6338962;22;45454;-80
2024/01/24 00:17:53;;;;;;;;;1.00;0.00;;;;;20.37;45.56;102068.56;6367048;22;46122;-80
2024/01/24 00:20:18;;;;;;;;;0.00;0.00;;;;;20.49;45.69;102088.59;6367826;22;45318;-80
2024/01/24 00:22:44;;;;;;;;;0.00;0.00;;;;;20.47;45.44;102079.13;6367347;22;45745;-80
2024/01/24 00:25:09;;;;;;;;;1.00;0.33;;;;;20.55;45.25;102081.06;6367240;22;45428;-80
2024/01/24 00:27:34;;;;;;;;;0.00;0.00;;;;;20.35;45.06;102044.09;6367782;22;46102;-80
2024/01/24 00:30:00;;;;;;;;;0.00;0.00;;;;;20.44;45.14;102053.81;6366999;22;45287;-80
2024/01/24 00:32:25;;;;;;;;;0.00;0.00;;;;;20.42;45.35;102041.72;6367216;22;45209;-80
2024/01/24 00:34:50;;;;;;;;;0.00;0.00;;;;;20.36;45.32;102019.31;6366776;22;59606;-80
2024/01/24 00:37:16;;;;;;;;;0.00;0.00;;;;;20.52;45.17;102050.47;6367386;22;45176;-79
2024/01/24 00:39:41;;;;;;;;;0.00;0.00;;;;;20.32;45.27;102018.75;6369174;22;45143;-79
2024/01/24 00:42:06;;;;;;;;;0.00;0.00;;;;;20.53;45.55;102053.94;6368819;22;45549;-79
2024/01/24 00:44:32;;;;;;;;;0.00;0.00;;;;;20.52;45.04;102037.25;6368903;22;45403;-79
2024/01/24 00:46:57;;;;;;;;;0.00;0.00;;;;;20.43;45.35;102048.66;6368322;22;46922;-80
2024/01/24 00:49:22;;;;;;;;;0.00;0.00;;;;;20.52;45.34;102058.41;6368342;22;45169;-80
2024/01/24 00:51:48;;;;;;;;;0.00;0.00;;;;;20.47;45.54;102034.19;6369256;22;45176;-80
2024/01/24 00:54:13;;;;;;;;;3.33;0.00;;;;;20.50;45.07;102073.56;6340381;22;47928;-80
2024/01/24 00:56:40;;;;;;;;;3.00;0.00;;;;;20.50;45.14;102078.84;6368103;22;47010;-80
2024/01/24 00:59:05;;;;;;;;;0.00;0.00;;;;;20.42;44.85;102065.50;6368617;22;45323;-80
2024/01/24 01:01:30;;;;;;;;;0.00;0.00;;;;;20.35;45.32;102046.72;6339848;22;45413;-79
2024/01/24 01:03:56;;;;;;;;;0.00;0.00;;;;;20.31;45.03;102056.72;6368596;22;45390;-80
2024/01/24 01:06:22;;;;;;;;;0.00;0.00;;;;;20.50;45.07;102089.44;6368156;22;46160;-80
2024/01/24 01:08:47;;;;;;;;;0.00;0.00;;;;;20.49;45.02;102083.31;6368493;22;45259;-81
2024/01/24 01:11:13;;;;;;;;;0.00;0.00;;;;;20.21;44.92;102032.09;6368354;22;45279;-80
2024/01/24 01:13:38;;;;;;;;;0.00;0.00;;;;;20.35;45.40;102057.31;6368925;22;45412;-80
2024/01/24 01:16:04;;;;;;;;;0.00;0.00;;;;;20.38;44.84;102064.94;6367595;22;59440;-80
2024/01/24 01:18:29;;;;;;;;;0.00;0.00;;;;;20.50;44.76;102094.72;6368427;22;45449;-81
2024/01/24 01:20:54;;;;;;;;;1.67;0.00;;;;;20.33;45.21;102069.78;6368950;22;45248;-80
2024/01/24 01:23:20;;;;;;;;;0.00;0.00;;;;;20.39;45.15;102093.03;6368710;22;45458;-80
2024/01/24 01:25:45;;;;;;;;;0.00;0.00;;;;;20.47;45.28;102101.13;6368914;22;45142;-80
2024/01/24 01:28:11;;;;;;;;;0.00;0.00;;;;;20.31;45.03;102061.19;6368683;22;45593;-80
2024/01/24 01:30:36;;;;;;;;;0.00;0.00;;;;;20.33;44.85;102078.56;6368067;22;45181;-81
2024/01/24 01:33:01;;;;;;;;;0.00;0.00;;;;;20.49;44.74;102103.63;6368590;22;45170;-80
2024/01/24 01:35:27;;;;;;;;;0.00;0.00;;;;;20.30;45.20;102065.63;6368134;22;45998;-80
2024/01/24 01:37:52;;;;;;;;;0.00;0.00;;;;;20.44;45.17;102096.09;6369039;22;48017;-80
2024/01/24 01:40:18;;;;;;;;;0.00;0.00;;;;;20.48;44.69;102108.06;6368929;22;45333;-80
2024/01/24 01:42:45;;;;;;;;;0.00;0.00;;;;;20.33;44.86;102078.56;6368998;22;45425;-80
2024/01/24 01:45:10;;;;;;;;;0.00;0.00;;;;;20.47;45.09;102087.91;6367591;22;45621;-80
2024/01/24 01:47:37;;;;;;;;;0.00;0.00;;;;;20.48;45.16;102094.84;6368167;22;45382;-81
2024/01/24 01:50:05;;;;;;;;;0.00;0.00;;;;;20.37;44.98;102092.34;6368348;22;45248;-80
2024/01/24 01:52:31;;;;;;;;;0.00;0.00;;;;;20.32;44.81;102092.78;6340060;22;45157;-80
2024/01/24 01:54:57;;;;;;;;;0.00;0.00;;;;;20.48;44.63;102109.91;6368548;22;45250;-81
2024/01/24 01:57:22;;;;;;;;;0.00;0.00;;;;;20.48;45.09;102117.81;6368029;22;45193;-80
2024/01/24 01:59:47;;;;;;;;;0.67;0.00;;;;;20.47;44.77;102122.28;6368490;22;45163;-80
2024/01/24 02:02:14;;;;;;;;;0.00;0.00;;;;;20.47;44.91;102121.44;6368910;22;45455;-80
2024/01/24 02:04:39;;;;;;;;;0.00;0.00;;;;;20.43;45.01;102118.22;6368102;22;46142;-80
2024/01/24 02:07:04;;;;;;;;;0.00;0.00;;;;;20.49;44.79;102145.91;6367973;22;52434;-80
2024/01/24 02:09:30;;;;;;;;;0.00;0.00;;;;;20.48;44.83;102139.78;6368680;22;45146;-80
2024/01/24 02:11:55;;;;;;;;;0.00;0.00;;;;;20.24;45.10;102098.75;6368663;22;45347;-80
2024/01/24 02:14:21;;;;;;;;;0.00;0.00;;;;;20.48;44.90;102137.16;6368203;22;45307;-80
2024/01/24 02:16:46;;;;;;;;;0.00;0.00;;;;;20.43;45.01;102134.06;6368308;22;45280;-80
2024/01/24 02:19:11;;;;;;;;;0.00;0.00;;;;;20.48;44.88;102146.91;6340046;22;45342;-80
2024/01/24 02:21:37;;;;;;;;;0.00;0.00;;;;;20.47;45.02;102143.41;6368039;22;53971;-81
2024/01/24 02:24:03;;;;;;;;;0.00;0.00;;;;;20.33;45.11;102117.38;6368412;22;45268;-80
2024/01/24 02:26:28;;;;;;;;;1.00;0.00;;;;;20.48;44.97;102142.44;6368261;22;45308;-80
2024/01/24 02:28:54;;;;;;;;;0.00;0.00;;;;;20.48;44.73;102144.25;6368329;22;45300;-80
2024/01/24 02:31:19;;;;;;;;;0.33;0.00;;;;;20.48;44.93;102153.00;6368765;22;45244;-80
2024/01/24 02:33:45;;;;;;;;;0.00;0.00;;;;;20.31;45.22;102119.31;6368084;22;46071;-80
2024/01/24 02:36:14;;;;;;;;;0.00;0.00;;;;;20.34;44.93;102143.69;6368055;22;45220;-80
2024/01/24 02:38:40;;;;;;;;;0.00;0.00;;;;;20.49;45.04;102169.72;6368271;22;45258;-80
2024/01/24 02:41:05;;;;;;;;;0.00;0.00;;;;;20.23;44.67;102120.00;6368634;22;45602;-80
2024/01/24 02:43:31;;;;;;;;;0.00;0.00;;;;;20.46;44.71;102164.69;6367621;22;46927;-79
2024/01/24 02:45:56;;;;;;;;;0.00;0.00;;;;;20.48;44.97;102183.91;6368038;22;45443;-80
2024/01/24 02:48:21;;;;;;;;;0.00;0.00;;;;;20.47;45.17;102180.44;6368594;22;45310;-80
2024/01/24 02:50:47;;;;;;;;;0.00;0.00;;;;;20.48;45.15;102176.00;6368573;22;45280;-80
2024/01/24 02:53:12;;;;;;;;;0.00;0.00;;;;;20.47;45.26;102177.78;6367665;22;60585;-80
2024/01/24 02:55:37;;;;;;;;;0.00;0.00;;;;;20.42;44.84;102172.09;6368022;22;50579;-80
2024/01/24 02:58:03;;;;;;;;;0.33;0.33;;;;;20.22;44.93;102126.28;6367484;22;54092;-80
2024/01/24 03:00:29;;;;;;;;;0.00;0.00;;;;;20.48;44.94;102181.28;6367170;22;45336;-80
2024/01/24 03:02:54;;;;;;;;;0.00;0.00;;;;;20.47;45.00;102187.53;6367946;22;45992;-81
2024/01/24 03:05:19;;;;;;;;;0.00;0.00;;;;;20.31;45.08;102148.41;6368112;22;45398;-80
2024/01/24 03:07:45;;;;;;;;;0.00;0.00;;;;;20.47;44.79;102190.16;6368368;22;45380;-80
2024/01/24 03:10:10;;;;;;;;;0.00;0.00;;;;;20.46;44.92;102176.09;6368127;22;45497;-81
2024/01/24 03:12:35;;;;;;;;;0.00;0.00;;;;;20.48;44.86;102173.34;6367387;22;48510;-80
2024/01/24 03:15:01;;;;;;;;;0.00;0.00;;;;;20.36;45.14;102167.31;6368028;22;45169;-80
2024/01/24 03:17:26;;;;;;;;;0.00;0.00;;;;;20.48;44.83;102197.13;6339558;22;46728;-80
2024/01/24 03:19:52;;;;;;;;;0.00;0.00;;;;;20.49;44.79;102196.16;6367997;22;45391;-80
2024/01/24 03:22:17;;;;;;;;;0.00;0.00;;;;;20.49;44.98;102190.88;6339495;22;48462;-80
2024/01/24 03:24:42;;;;;;;;;0.00;0.00;;;;;20.38;44.69;102181.22;6368247;22;45090;-80
2024/01/24 03:27:08;;;;;;;;;0.00;0.00;;;;;20.46;44.86;102191.97;6367107;22;53763;-80
2024/01/24 03:29:33;;;;;;;;;0.00;0.00;;;;;20.49;44.85;102190.88;6368178;22;45224;-80
2024/01/24 03:31:58;;;;;;;;;0.00;0.00;;;;;20.31;44.72;102166.91;6368045;22;45598;-80
2024/01/24 03:34:23;;;;;;;;;0.00;0.00;;;;;20.32;45.09;102168.59;6367938;22;45191;-80
2024/01/24 03:36:49;;;;;;;;;0.00;0.00;;;;;20.49;44.80;102222.59;6367167;22;58470;-80
2024/01/24 03:39:14;;;;;;;;;0.00;0.00;;;;;20.49;44.57;102209.38;6367821;22;48250;-80
2024/01/24 03:41:39;;;;;;;;;0.33;0.00;;;;;20.26;44.67;102176.09;6367646;22;46075;-80
2024/01/24 03:44:05;;;;;;;;;0.00;0.00;;;;;20.43;44.84;102216.03;6367361;22;56636;-80
2024/01/24 03:46:30;;;;;;;;;0.00;0.00;;;;;20.48;44.79;102232.31;6368130;22;45295;-81
2024/01/24 03:48:56;;;;;;;;;0.00;0.00;;;;;20.43;44.84;102233.72;6368656;22;45426;-81
2024/01/24 03:51:22;;;;;;;;;0.00;0.00;;;;;20.48;44.59;102250.81;6367984;22;45359;-80
2024/01/24 03:53:47;;;;;;;;;0.00;0.00;;;;;20.37;44.90;102217.44;6368374;22;45246;-81
2024/01/24 03:56:12;;;;;;;;;0.00;0.00;;;;;20.33;44.81;102220.47;6368043;22;45162;-80
2024/01/24 03:58:38;;;;;;;;;0.00;0.00;;;;;20.20;44.94;102194.28;6368114;22;45308;-81
2024/01/24 04:01:04;;;;;;;;;0.00;0.00;;;;;20.45;45.20;102224.69;6339085;22;46883;-80
2024/01/24 04:03:29;;;;;;;;;0.00;0.00;;;;;20.25;44.75;102205.28;6367535;22;45390;-80
2024/01/24 04:05:55;;;;;;;;;0.00;0.00;;;;;20.49;44.56;102246.38;6367586;22;45804;-80
2024/01/24 04:08:21;;;;;;;;;0.00;0.00;;;;;20.48;44.52;102229.69;6367514;22;45434;-80
2024/01/24 04:10:47;;;;;;;;;0.00;0.00;;;;;20.38;44.91;102218.25;6367608;22;45975;-80
2024/01/24 04:13:12;;;;;;;;;0.00;0.00;;;;;20.48;44.75;102240.25;6368634;22;45186;-80
2024/01/24 04:15:37;;;;;;;;;0.00;0.00;;;;;20.48;44.79;102242.91;6368998;22;45243;-81
2024/01/24 04:18:03;;;;;;;;;0.00;0.00;;;;;20.47;45.06;102235.97;6369223;22;45368;-81
2024/01/24 04:20:28;;;;;;;;;0.00;0.00;;;;;20.42;44.60;102256.66;6368506;22;45915;-80
2024/01/24 04:22:54;;;;;;;;;0.00;0.00;;;;;20.49;44.65;102233.16;6368509;22;45351;-81
2024/01/24 04:25:19;;;;;;;;;0.67;0.00;;;;;20.34;44.70;102215.06;6368263;22;48323;-80
2024/01/24 04:27:45;;;;;;;;;0.00;0.00;;;;;20.49;44.67;102249.03;6340475;22;45299;-81
2024/01/24 04:30:11;;;;;;;;;0.00;0.00;;;;;20.44;44.92;102246.78;6368672;22;46116;-80
2024/01/24 04:32:36;;;;;;;;;0.00;0.00;;;;;20.48;44.88;102265.88;6368416;22;45302;-81
2024/01/24 04:35:01;;;;;;;;;0.00;0.00;;;;;20.47;44.46;102272.97;6369211;22;45230;-80
2024/01/24 04:37:26;;;;;;;;;0.00;0.00;;;;;20.39;44.44;102267.50;6368978;22;46369;-80
2024/01/24 04:39:52;;;;;;;;;0.00;0.00;;;;;20.47;44.59;102265.03;6368941;22;46912;-81
2024/01/24 04:42:17;;;;;;;;;0.00;0.00;;;;;20.30;45.14;102250.63;6369058;22;45325;-81
2024/01/24 04:44:43;;;;;;;;;0.00;0.00;;;;;20.49;44.87;102286.03;6369054;22;45306;-80
2024/01/24 04:47:09;;;;;;;;;0.00;0.00;;;;;20.34;44.62;102262.63;6369440;22;45276;-80
2024/01/24 04:49:34;;;;;;;;;0.00;0.00;;;;;20.26;44.72;102257.16;6368779;22;45318;-80
2024/01/24 04:52:00;;;;;;;;;0.00;0.00;;;;;20.39;44.58;102286.84;6369047;22;45287;-80
2024/01/24 04:54:25;;;;;;;;;0.00;0.00;;;;;20.48;44.71;102305.53;6368088;22;45280;-80
2024/01/24 04:56:51;;;;;;;;;0.00;0.00;;;;;20.49;44.74;102280.75;6369165;22;45395;-80
2024/01/24 04:59:16;;;;;;;;;0.00;0.00;;;;;20.27;44.63;102257.03;6368411;22;47003;-81
2024/01/24 05:01:41;;;;;;;;;0.00;0.00;;;;;20.26;45.12;102260.66;6340953;22;45319;-81
2024/01/24 05:04:07;;;;;;;;;0.00;0.00;;;;;20.21;44.65;102256.75;6368838;22;45289;-80
2024/01/24 05:06:33;;;;;;;;;0.00;0.00;;;;;20.47;44.34;102317.91;6368929;22;45147;-81
2024/01/24 05:08:58;;;;;;;;;0.00;0.00;;;;;20.44;44.65;102327.91;6368069;22;45248;-81
2024/01/24 05:11:24;;;;;;;;;0.00;0.00;;;;;20.44;44.99;102347.25;6369087;22;45219;-81
2024/01/24 05:13:49;;;;;;;;;0.00;0.00;;;;;20.46;44.61;102358.53;6368487;22;46963;-80
2024/01/24 05:16:15;;;;;;;;;0.00;0.00;;;;;20.49;44.78;102342.41;6368835;22;49414;-81
2024/01/24 05:18:41;;;;;;;;;0.00;0.00;;;;;20.49;44.39;102360.91;6368117;22;46892;-81
2024/01/24 05:21:06;;;;;;;;;0.00;0.00;;;;;20.39;44.56;102339.72;6368531;22;45314;-81
2024/01/24 05:23:32;;;;;;;;;0.00;0.00;;;;;20.50;44.83;102369.69;6368241;22;45264;-81
2024/01/24 05:25:57;;;;;;;;;0.00;0.00;;;;;20.33;44.79;102331.47;6368586;22;45198;-81
2024/01/24 05:28:23;;;;;;;;;0.00;0.00;;;;;20.50;44.52;102378.47;6368659;22;45329;-80
2024/01/24 05:30:48;;;;;;;;;0.00;0.00;;;;;20.26;44.55;102345.25;6340433;22;45816;-81
2024/01/24 05:33:13;;;;;;;;;0.67;0.00;;;;;20.51;44.51;102396.00;6368876;22;45227;-81
2024/01/24 05:35:39;;;;;;;;;0.00;0.00;;;;;20.51;44.71;102389.84;6368235;22;45512;-80
2024/01/24 05:38:04;;;;;;;;;1.00;0.00;;;;;20.51;44.59;102409.22;6368684;22;45938;-81
2024/01/24 05:40:30;;;;;;;;;0.00;0.00;;;;;20.43;44.38;102400.28;6367548;22;45280;-81
2024/01/24 05:42:55;;;;;;;;;0.00;0.00;;;;;20.46;44.23;102419.34;6368488;22;45335;-80
2024/01/24 05:45:23;;;;;;;;;0.00;0.00;;;;;20.51;44.38;102422.44;6368103;22;45133;-81
2024/01/24 05:47:48;;;;;;;;;0.00;0.00;;;;;20.50;44.44;102412.84;6368695;22;46253;-81
2024/01/24 05:50:14;;;;;;;;;0.00;0.00;;;;;20.50;44.34;102420.78;6368119;22;45291;-80
2024/01/24 05:52:41;;;;;;;;;0.00;0.00;;;;;20.51;44.59;102453.31;6368591;22;45317;-81
2024/01/24 05:55:06;;;;;;;;;0.00;0.00;;;;;20.36;44.41;102421.09;6368655;22;45308;-80
2024/01/24 05:57:32;;;;;;;;;0.00;0.00;;;;;20.51;44.58;102454.16;6368206;22;46398;-79
2024/01/24 05:59:57;;;;;;;;;0.67;0.00;;;;;20.50;44.66;102471.00;6368131;22;45371;-80
2024/01/24 06:02:22;;;;;;;;;0.33;0.00;;;;;20.33;44.40;102448.63;6369014;22;45398;-80
2024/01/24 06:04:48;;;;;;;;;0.67;0.00;;;;;20.49;44.67;102484.34;6367950;22;48833;-80
2024/01/24 06:07:14;;;;;;;;;0.00;0.00;;;;;20.37;44.50;102470.38;6367439;22;56718;-80
2024/01/24 06:09:39;;;;;;;;;0.00;0.00;;;;;20.49;44.83;102498.41;6368071;22;45261;-81
2024/01/24 06:12:05;;;;;;;;;0.00;0.00;;;;;20.36;44.27;102487.19;6368350;22;45279;-80
2024/01/24 06:14:30;;;;;;;;;0.00;0.00;;;;;20.49;44.67;102511.63;6368672;22;45281;-80
2024/01/24 06:16:55;;;;;;;;;0.33;0.00;;;;;20.48;44.53;102515.22;6368273;22;46563;-81
2024/01/24 06:19:20;;;;;;;;;1.67;0.00;;;;;20.49;44.65;102524.00;6368460;22;46643;-82
2024/01/24 06:21:46;;;;;;;;;0.00;0.00;;;;;20.48;44.57;102528.44;6368062;22;48554;-81
2024/01/24 06:24:11;;;;;;;;;0.00;0.00;;;;;20.29;44.78;102503.56;6339729;22;45227;-81
2024/01/24 06:26:37;;;;;;;;;0.00;0.00;;;;;20.49;44.44;102540.72;6339294;22;58120;-80
2024/01/24 06:29:03;;;;;;;;;1.00;0.00;;;;;20.36;44.26;102527.69;6368211;22;45205;-83
2024/01/24 06:31:28;;;;;;;;;0.00;0.00;;;;;20.42;44.39;102536.06;6368110;22;45196;-75
2024/01/24 06:33:54;;;;;;;;;1.00;0.00;;;;;20.40;44.60;102538.84;6368401;22;45342;-80
2024/01/24 06:36:20;;;;;;;;;0.00;0.00;;;;;20.51;44.77;102557.28;6367353;22;46207;-79
2024/01/24 06:38:46;;;;;;;;;0.00;0.00;;;;;20.52;44.56;102560.78;6367718;22;45262;-81
2024/01/24 06:41:13;;;;;;;;;0.00;0.00;;;;;20.48;44.91;102559.38;6368127;22;45357;-79
2024/01/24 06:43:41;;;;;;;;;2.33;0.00;;;;;20.55;45.01;102576.38;6367911;22;45268;-79
2024/01/24 06:46:06;;;;;;;;;0.00;0.00;;;;;20.50;44.95;102560.91;6366438;22;46048;-76
2024/01/24 06:48:31;;;;;;;;;1.33;0.00;;;;;20.20;44.88;102528.09;6367183;22;45352;-84
2024/01/24 06:50:58;;;;;;;;;0.00;0.00;;;;;20.56;45.42;102590.44;6366636;22;45261;-81
2024/01/24 06:53:24;;;;;;;;;3.00;0.00;;;;;20.59;44.97;102593.66;6367521;22;45466;-80
2024/01/24 06:55:50;;;;;;;;;3.00;0.00;;;;;20.60;45.06;102598.00;6367525;22;47263;-80
2024/01/24 06:58:15;;;;;;;;;3.00;0.33;;;;;20.60;44.80;102591.88;6367815;22;45221;-79
2024/01/24 07:00:41;;;;;;;;;0.00;0.00;;;;;20.21;44.99;102534.25;6367839;22;45367;-81
2024/01/24 07:03:06;;;;;;;;;0.00;0.00;;;;;20.58;44.88;102591.97;6368080;22;45310;-80
2024/01/24 07:05:31;;;;;;;;;0.33;0.00;;;;;20.59;44.77;102595.47;6367404;22;46237;-80
2024/01/24 07:07:57;;;;;;;;;0.00;0.00;;;;;20.58;45.00;102594.63;6368150;22;45413;-80
2024/01/24 07:10:23;;;;;;;;;0.00;0.00;;;;;20.39;44.75;102572.38;6340362;22;45337;-81
2024/01/24 07:12:49;;;;;;;;;3.00;0.00;;;;;20.51;45.13;102601.38;6368029;22;45409;-81
2024/01/24 07:15:18;;;;;;;;;0.67;0.00;;;;;20.46;44.77;102588.56;6368108;22;45229;-80
2024/01/24 07:17:44;;;;;;;;;0.00;0.00;;;;;20.57;45.01;102603.53;6367439;22;45263;-80
2024/01/24 07:20:10;;;;;;;;;2.33;0.00;;;;;20.57;44.67;102611.47;6367772;22;45161;-80
2024/01/24 07:22:35;;;;;;;;;0.00;0.00;;;;;20.57;44.91;102616.75;6367596;22;45459;-80
2024/01/24 07:25:01;;;;;;;;;1.33;1.00;;;;;20.57;44.74;102606.19;6368037;22;45955;-80
2024/01/24 07:27:27;;;;;;;;;0.00;0.00;;;;;20.57;45.09;102606.19;6367883;22;45328;-80
2024/01/24 07:29:53;;;;;;;;;0.33;0.00;;;;;20.57;45.02;102606.19;6367866;22;45311;-80
2024/01/24 07:32:18;;;;;;;;;0.00;0.00;;;;;20.58;44.69;102607.03;6367794;22;45496;-80
2024/01/24 07:34:43;;;;;;;;;0.00;0.00;;;;;20.49;44.64;102600.69;6338882;22;58269;-80
2024/01/24 07:37:09;;;;;;;;;0.33;0.00;;;;;20.35;44.79;102596.56;6368298;22;45244;-80
2024/01/24 07:39:35;;;;;;;;;2.00;0.00;;;;;20.52;44.77;102629.53;6368304;22;45221;-80
2024/01/24 07:42:00;;;;;;;;;0.00;0.00;;;;;20.56;44.48;102635.38;6368455;22;45460;-81
2024/01/24 07:44:26;;;;;;;;;1.67;0.00;;;;;20.45;44.53;102618.63;6367220;22;46247;-80
2024/01/24 07:46:52;;;;;;;;;0.00;0.00;;;;;20.53;44.63;102620.63;6368598;22;45225;-80
2024/01/24 07:49:17;;;;;;;;;0.00;0.00;;;;;20.42;44.55;102610.09;6371167;22;45575;-80
2024/01/24 07:51:46;;;;;;;;;0.00;0.00;;;;;20.57;44.81;102634.44;6370994;22;45351;-80
2024/01/24 07:54:12;;;;;;;;;0.00;0.00;;;;;20.56;44.89;102630.09;6371886;22;45369;-80
2024/01/24 07:56:38;;;;;;;;;0.00;0.00;;;;;20.56;44.90;102628.28;6369530;22;45280;-81
2024/01/24 07:59:04;;;;;;;;;1.33;0.00;;;;;20.55;45.10;102637.22;6368976;22;45347;-75
2024/01/24 08:01:29;;;;;;;;;2.33;0.00;;;;;20.42;44.74;102581.00;6369807;22;45446;-78
2024/01/24 08:03:54;;;;;;;;;0.00;0.00;;;;;20.56;44.69;102622.16;6370840;22;45291;-79
2024/01/24 08:06:21;;;;;;;;;0.33;0.33;;;;;20.32;44.86;102595.00;6370236;22;59827;-79
2024/01/24 08:08:46;;;;;;;;;0.00;0.00;;;;;20.51;45.09;102639.25;6370629;22;45220;-79
2024/01/24 08:11:12;;;;;;;;;0.00;0.00;;;;;20.55;44.95;102647.78;6370806;22;45209;-78
2024/01/24 08:13:37;;;;;;;;;0.00;0.00;;;;;20.55;44.73;102653.06;6369819;22;60950;-78
2024/01/24 08:16:02;;;;;;;;;0.67;0.00;;;;;20.54;44.84;102651.38;6369522;22;62013;-78
2024/01/24 08:18:27;;;;;;;;;0.00;0.00;;;;;20.56;44.53;102659.19;6370823;22;45514;-78
2024/01/24 08:20:55;;;;;;;;;0.00;0.00;;;;;20.55;44.56;102661.00;6370595;22;54856;-77
2024/01/24 08:23:20;;;;;;;;;0.00;0.00;;;;;20.56;44.51;102661.81;6370518;22;46001;-78
2024/01/24 08:25:46;;;;;;;;;0.00;0.00;;;;;20.51;44.34;102673.63;6369998;22;45490;-78
2024/01/24 08:28:11;;;;;;;;;0.00;0.00;;;;;20.53;44.83;102672.69;6370028;22;46211;-78
2024/01/24 08:30:36;;;;;;;;;0.00;0.00;;;;;20.44;44.97;102666.31;6369739;22;45475;-77
2024/01/24 08:33:02;;;;;;;;;0.00;0.00;;;;;20.55;44.85;102687.47;6370002;22;61811;-78
2024/01/24 08:35:27;;;;;;;;;0.00;0.00;;;;;20.55;44.77;102678.69;6369965;22;45276;-78
2024/01/24 08:37:52;;;;;;;;;3.00;0.00;;;;;20.55;44.50;102682.16;6370974;22;45292;-77
2024/01/24 08:40:19;;;;;;;;;0.33;0.00;;;;;20.54;44.87;102676.97;6370960;22;45511;-76
2024/01/24 08:42:44;;;;;;;;;1.00;0.00;;;;;20.55;44.40;102670.75;6370026;22;46956;-78
2024/01/24 08:45:10;;;;;;;;;0.33;0.00;;;;;20.55;44.75;102679.53;6369968;22;45252;-78
2024/01/24 08:47:36;;;;;;;;;1.33;1.00;;;;;20.56;44.64;102688.28;6370894;22;45228;-78
2024/01/24 08:50:04;;;;;;;;;0.00;0.00;;;;;20.55;44.83;102682.16;6370571;22;45398;-78
2024/01/24 08:52:30;;;;;;;;;0.00;0.00;;;;;20.57;44.78;102687.31;6370144;22;46306;-76
2024/01/24 08:54:55;;;;;;;;;0.00;0.00;;;;;20.56;44.69;102667.97;6370324;22;45519;-78
2024/01/24 08:57:21;;;;;;;;;0.33;0.33;;;;;20.57;44.61;102682.03;6369587;22;47098;-79
2024/01/24 08:59:46;;;;;;;;;2.00;0.00;;;;;20.57;44.62;102677.59;6368043;22;45379;-78
2024/01/24 09:02:11;;;;;;;;;2.00;1.00;;;;;20.37;44.83;102647.50;6368310;22;45343;-79
2024/01/24 09:04:37;;;;;;;;;2.00;0.00;;;;;20.57;44.76;102687.31;6368364;22;45389;-79
2024/01/24 09:07:03;;;;;;;;;0.67;0.67;;;;;20.52;44.79;102669.19;6368322;22;45585;-78
2024/01/24 09:09:32;;;;;;;;;1.67;0.00;;;;;20.56;44.61;102686.47;6368253;22;45412;-79
2024/01/24 09:11:57;;;;;;;;;1.33;0.00;;;;;20.56;44.78;102686.47;6368306;22;45414;-79
2024/01/24 09:14:24;;;;;;;;;0.33;0.00;;;;;20.53;44.31;102670.88;6367651;22;45209;-77
2024/01/24 09:16:49;;;;;;;;;0.67;0.67;;;;;20.51;44.49;102676.28;6368654;22;45319;-79
2024/01/24 09:19:15;;;;;;;;;0.00;0.00;;;;;20.56;44.44;102691.75;6339334;22;55349;-78
2024/01/24 09:21:42;;;;;;;;;2.33;0.00;;;;;20.39;44.60;102670.19;6369136;22;46138;-77
2024/01/24 09:24:08;;;;;;;;;0.33;0.00;;;;;20.22;44.98;102641.66;6369444;22;45287;-79
2024/01/24 09:26:34;;;;;;;;;0.67;0.67;;;;;20.26;44.92;102649.19;6370357;22;45332;-79
2024/01/24 09:28:59;;;;;;;;;0.00;0.00;;;;;20.57;44.62;102693.44;6369473;22;45308;-78
2024/01/24 09:31:25;;;;;;;;;0.00;0.00;;;;;20.49;44.85;102693.22;6368616;22;53280;-81
2024/01/24 09:33:50;;;;;;;;;1.33;0.00;;;;;20.51;44.56;102697.44;6341499;22;45811;-80
2024/01/24 09:36:16;;;;;;;;;0.00;0.00;;;;;20.59;44.89;102725.06;6369685;22;45362;-77
2024/01/24 09:38:43;;;;;;;;;0.00;0.00;;;;;20.33;44.60;102688.34;6369722;22;45315;-80
2024/01/24 09:41:16;;;;;;;;;0.67;0.67;;;;;19.70;44.97;102585.72;6369683;22;45360;-79
2024/01/24 09:43:43;;;;;;;;;0.00;0.00;;;;;20.61;44.73;102728.41;6368831;22;45290;-78
2024/01/24 09:46:13;;;;;;;;;2.67;0.67;;;;;20.50;44.36;102719.56;6369138;22;45212;-79
2024/01/24 09:48:41;;;;;;;;;0.67;0.67;;;;;20.22;44.50;102663.59;6341601;22;45393;-79
2024/01/24 09:51:08;;;;;;;;;3.00;1.00;;;;;20.44;44.36;102703.34;6369079;22;46374;-81
2024/01/24 09:53:34;;;;;;;;;2.00;0.00;;;;;20.59;44.96;102725.91;6369162;22;45226;-78
2024/01/24 09:56:02;;;;;;;;;1.00;1.00;;;;;20.15;44.67;102663.28;6370254;22;45276;-78
2024/01/24 09:58:27;;;;;;;;;2.33;0.00;;;;;20.45;44.76;102697.09;6367977;22;45288;-80
2024/01/24 10:00:54;;;;;;;;;0.00;0.00;;;;;20.27;44.57;102677.28;6368511;22;46913;-80
2024/01/24 10:03:19;;;;;;;;;3.33;0.00;;;;;20.07;44.89;102640.06;6368474;22;45332;-78
2024/01/24 10:05:48;;;;;;;;;1.00;0.67;;;;;19.96;44.48;102646.22;6369230;22;45299;-78
2024/01/24 10:08:15;;;;;;;;;0.67;0.67;;;;;19.99;44.96;102665.41;6369198;22;45226;-79
2024/01/24 10:10:42;;;;;;;;;3.67;0.67;;;;;20.34;44.54;102722.59;6368520;22;46495;-80
2024/01/24 10:13:07;;;;;;;;;0.33;0.00;;;;;20.09;44.65;102687.50;6367886;22;45262;-80
2024/01/24 10:15:35;;;;;;;;;1.00;1.00;;;;;20.69;44.71;102785.97;6369516;22;45358;-80
2024/01/24 10:18:00;;;;;;;;;2.33;0.67;;;;;20.69;44.65;102797.41;6369388;22;45534;-79
2024/01/24 10:20:26;;;;;;;;;0.67;0.67;;;;;20.69;44.45;102801.84;6368488;22;45837;-79
2024/01/24 10:22:53;;;;;;;;;0.00;0.00;;;;;20.50;44.38;102768.97;6369669;22;45457;-80
2024/01/24 10:25:18;;;;;;;;;1.00;1.00;;;;;20.55;44.50;102790.59;6369203;22;45307;-79
2024/01/24 10:27:44;;;;;;;;;2.33;0.67;;;;;20.21;44.33;102729.81;6368635;22;49203;-79
2024/01/24 10:30:12;;;;;;;;;2.67;0.67;;;;;19.92;44.74;102679.13;6368300;22;47141;-80
2024/01/24 10:32:37;;;;;;;;;0.00;0.00;;;;;20.68;44.38;102795.75;6369571;22;45374;-80
2024/01/24 10:35:08;;;;;;;;;2.33;0.00;;;;;20.61;44.55;102783.94;6368632;22;45319;-80
2024/01/24 10:37:34;;;;;;;;;1.67;0.67;;;;;20.38;44.85;102742.53;6368970;22;45438;-80
2024/01/24 10:40:11;;;;;;;;;2.00;0.00;;;;;20.68;44.38;102784.31;6368944;22;45401;-80
2024/01/24 10:42:40;;;;;;;;;0.00;0.00;;;;;20.68;44.48;102779.03;6368070;22;45310;-80
2024/01/24 10:45:07;;;;;;;;;0.67;0.67;;;;;19.85;44.52;102654.97;6369495;22;45213;-80
2024/01/24 10:47:34;;;;;;;;;5.33;0.33;;;;;20.67;44.47;102777.31;6369159;22;45850;-80
2024/01/24 10:50:04;;;;;;;;;0.67;0.33;;;;;20.68;44.67;102793.09;6368806;22;45444;-79
2024/01/24 10:52:32;;;;;;;;;0.00;0.00;;;;;20.54;44.49;102761.59;6368729;22;45351;-80
2024/01/24 10:55:03;;;;;;;;;2.00;0.00;;;;;20.57;44.46;102780.72;6368325;22;45366;-80
2024/01/24 10:57:29;;;;;;;;;0.00;0.00;;;;;20.56;44.85;102783.47;6367221;22;45490;-79
2024/01/24 10:59:56;;;;;;;;;0.67;0.67;;;;;20.70;44.66;102800.91;6368741;22;46282;-80
2024/01/24 11:02:21;;;;;;;;;0.67;0.00;;;;;20.59;44.40;102797.31;6367806;22;45460;-78
2024/01/24 11:04:49;;;;;;;;;1.00;0.33;;;;;20.51;44.94;102779.41;6339887;22;45283;-80
2024/01/24 11:07:19;;;;;;;;;1.33;0.33;;;;;20.69;44.73;102802.69;6367605;22;45457;-80
2024/01/24 11:10:18;;;;;;;;;0.67;0.67;;;;;20.39;44.90;102775.09;6367336;22;46989;-81
2024/01/24 11:12:44;;;;;;;;;2.33;0.67;;;;;20.70;44.26;102814.13;6367596;22;45193;-78
2024/01/24 11:15:13;;;;;;;;;1.00;0.67;;;;;20.69;44.73;102807.97;6367791;22;45176;-81
2024/01/24 11:17:39;;;;;;;;;1.00;0.67;;;;;20.69;44.98;102799.19;6367888;22;45232;-79